XGO4CH LFSB-LSZR
Flight info
| Callsign | XGO4CH |
|---|---|
| Flight time | 0h 29m |
| Altitude | 18000 |
| Route | ELBEG Y715 NEDOV T732 GARMO |
| Aircraft | P180/L-SBDFGM3RWXY/LB1 |
Departure
| Time | 2026-04-16 12:40 |
|---|---|
| Airport | EuroAirport Basel–Mulhouse–Freiburg (LFSB) |
Arrival
| Time | 2026-04-16 13:10 |
|---|---|
| Airport | Sankt Gallen Altenrhein Airport (LSZR) |
| Time | Latitude | Longitude | Altitude | Speed | Heading |
|---|---|---|---|---|---|
| 2026-04-16 12:18 | 47.58364 | 7.52679 | 885 ft | 0 kts | 186° |
| 2026-04-16 12:35 | 47.58363 | 7.52679 | 885 ft | 2 kts | 186° |
| 2026-04-16 12:35 | 47.58330 | 7.52699 | 887 ft | 10 kts | 142° |
| 2026-04-16 12:36 | 47.58313 | 7.52776 | 887 ft | 8 kts | 56° |
| 2026-04-16 12:36 | 47.58389 | 7.52763 | 887 ft | 16 kts | 334° |
| 2026-04-16 12:36 | 47.58471 | 7.52785 | 887 ft | 15 kts | 57° |
| 2026-04-16 12:36 | 47.58525 | 7.52949 | 888 ft | 20 kts | 64° |
| 2026-04-16 12:37 | 47.58590 | 7.53146 | 888 ft | 23 kts | 64° |
| 2026-04-16 12:37 | 47.58656 | 7.53355 | 888 ft | 19 kts | 62° |
| 2026-04-16 12:37 | 47.58756 | 7.53378 | 887 ft | 17 kts | 335° |
| 2026-04-16 12:37 | 47.58881 | 7.53292 | 887 ft | 23 kts | 335° |
| 2026-04-16 12:38 | 47.59032 | 7.53185 | 889 ft | 25 kts | 335° |
| 2026-04-16 12:38 | 47.59173 | 7.53096 | 888 ft | 13 kts | 10° |
| 2026-04-16 12:38 | 47.59178 | 7.53206 | 888 ft | 14 kts | 114° |
| 2026-04-16 12:38 | 47.59156 | 7.53362 | 887 ft | 20 kts | 78° |
| 2026-04-16 12:39 | 47.59191 | 7.53582 | 887 ft | 20 kts | 77° |
| 2026-04-16 12:39 | 47.59226 | 7.53805 | 886 ft | 24 kts | 76° |
| 2026-04-16 12:39 | 47.59224 | 7.54010 | 884 ft | 21 kts | 122° |
| 2026-04-16 12:39 | 47.59162 | 7.54034 | 881 ft | 3 kts | 257° |
| 2026-04-16 12:40 | 47.59160 | 7.54026 | 882 ft | 13 kts | 256° |
| 2026-04-16 12:40 | 47.59037 | 7.53242 | 891 ft | 128 kts | 257° |
| 2026-04-16 12:40 | 47.58821 | 7.51817 | 1632 ft | 151 kts | 258° |
| 2026-04-16 12:40 | 47.58603 | 7.50342 | 2451 ft | 148 kts | 257° |
| 2026-04-16 12:41 | 47.58477 | 7.48801 | 3002 ft | 153 kts | 273° |
| 2026-04-16 12:41 | 47.58945 | 7.47441 | 3540 ft | 159 kts | 325° |
| 2026-04-16 12:41 | 47.60029 | 7.47210 | 4265 ft | 161 kts | 8° |
| 2026-04-16 12:41 | 47.61068 | 7.47728 | 5233 ft | 159 kts | 32° |
| 2026-04-16 12:42 | 47.61850 | 7.48898 | 6045 ft | 163 kts | 57° |
| 2026-04-16 12:42 | 47.62321 | 7.50435 | 6869 ft | 165 kts | 65° |
| 2026-04-16 12:42 | 47.62809 | 7.51988 | 7611 ft | 168 kts | 64° |
| 2026-04-16 12:42 | 47.63289 | 7.53580 | 8345 ft | 171 kts | 65° |
| 2026-04-16 12:43 | 47.63776 | 7.55199 | 9067 ft | 174 kts | 65° |
| 2026-04-16 12:43 | 47.64272 | 7.56855 | 9758 ft | 178 kts | 65° |
| 2026-04-16 12:43 | 47.64782 | 7.58549 | 10405 ft | 181 kts | 65° |
| 2026-04-16 12:43 | 47.65298 | 7.60267 | 11028 ft | 183 kts | 65° |
| 2026-04-16 12:44 | 47.65822 | 7.62008 | 11636 ft | 186 kts | 65° |
| 2026-04-16 12:44 | 47.66350 | 7.63770 | 12232 ft | 188 kts | 64° |
| 2026-04-16 12:44 | 47.66887 | 7.65557 | 12824 ft | 191 kts | 64° |
| 2026-04-16 12:44 | 47.67429 | 7.67367 | 13403 ft | 193 kts | 64° |
| 2026-04-16 12:45 | 47.67978 | 7.69201 | 13975 ft | 196 kts | 64° |
| 2026-04-16 12:45 | 47.68534 | 7.71055 | 14468 ft | 198 kts | 64° |
| 2026-04-16 12:45 | 47.69095 | 7.72933 | 14953 ft | 200 kts | 64° |
| 2026-04-16 12:45 | 47.69663 | 7.74834 | 15436 ft | 202 kts | 65° |
| 2026-04-16 12:46 | 47.70133 | 7.76818 | 15942 ft | 204 kts | 68° |
| 2026-04-16 12:46 | 47.70654 | 7.78797 | 16473 ft | 207 kts | 66° |
| 2026-04-16 12:46 | 47.71178 | 7.80801 | 16962 ft | 210 kts | 67° |
| 2026-04-16 12:46 | 47.71691 | 7.82839 | 17456 ft | 212 kts | 67° |
| 2026-04-16 12:47 | 47.72211 | 7.84907 | 17938 ft | 214 kts | 67° |
| 2026-04-16 12:47 | 47.72743 | 7.87014 | 18242 ft | 227 kts | 67° |
| 2026-04-16 12:47 | 47.73321 | 7.89313 | 18254 ft | 248 kts | 67° |
| 2026-04-16 12:47 | 47.73947 | 7.91800 | 18254 ft | 266 kts | 68° |
| 2026-04-16 12:48 | 47.74612 | 7.94448 | 18264 ft | 280 kts | 68° |
| 2026-04-16 12:48 | 47.75304 | 7.97220 | 18259 ft | 292 kts | 68° |
| 2026-04-16 12:48 | 47.76020 | 8.00097 | 18260 ft | 301 kts | 68° |
| 2026-04-16 12:48 | 47.76763 | 8.03051 | 18259 ft | 309 kts | 68° |
| 2026-04-16 12:49 | 47.77507 | 8.06040 | 18267 ft | 315 kts | 68° |
| 2026-04-16 12:49 | 47.78273 | 8.09113 | 18267 ft | 319 kts | 68° |
| 2026-04-16 12:49 | 47.79048 | 8.12226 | 18264 ft | 323 kts | 68° |
| 2026-04-16 12:49 | 47.79828 | 8.15366 | 18267 ft | 325 kts | 68° |
| 2026-04-16 12:50 | 47.80614 | 8.18533 | 18266 ft | 327 kts | 68° |
| 2026-04-16 12:50 | 47.81407 | 8.21717 | 18265 ft | 329 kts | 68° |
| 2026-04-16 12:50 | 47.82201 | 8.24919 | 18266 ft | 331 kts | 68° |
| 2026-04-16 12:50 | 47.82992 | 8.28138 | 18267 ft | 332 kts | 68° |
| 2026-04-16 12:51 | 47.83788 | 8.31366 | 18268 ft | 332 kts | 68° |
| 2026-04-16 12:51 | 47.84590 | 8.34595 | 18264 ft | 334 kts | 68° |
| 2026-04-16 12:51 | 47.85388 | 8.37845 | 18265 ft | 334 kts | 68° |
| 2026-04-16 12:51 | 47.86187 | 8.41095 | 18265 ft | 335 kts | 68° |
| 2026-04-16 12:52 | 47.86726 | 8.43288 | 18263 ft | 335 kts | 68° |
| 2026-04-16 12:52 | 47.87532 | 8.46556 | 18266 ft | 335 kts | 68° |
| 2026-04-16 12:52 | 47.88327 | 8.49774 | 18258 ft | 336 kts | 68° |
| 2026-04-16 12:52 | 47.89127 | 8.53046 | 18259 ft | 336 kts | 68° |
| 2026-04-16 12:53 | 47.89943 | 8.56357 | 18259 ft | 336 kts | 68° |
| 2026-04-16 12:53 | 47.90735 | 8.59592 | 18258 ft | 337 kts | 68° |
| 2026-04-16 12:53 | 47.91536 | 8.62877 | 18258 ft | 337 kts | 68° |
| 2026-04-16 12:53 | 47.92339 | 8.66164 | 18258 ft | 337 kts | 68° |
| 2026-04-16 12:54 | 47.93139 | 8.69453 | 18254 ft | 337 kts | 68° |
| 2026-04-16 12:54 | 47.93945 | 8.72742 | 18098 ft | 340 kts | 68° |
| 2026-04-16 12:54 | 47.94763 | 8.76091 | 17415 ft | 347 kts | 68° |
| 2026-04-16 12:54 | 47.95583 | 8.79490 | 16748 ft | 347 kts | 69° |
| 2026-04-16 12:55 | 47.96387 | 8.82843 | 16096 ft | 341 kts | 69° |
| 2026-04-16 12:55 | 47.97194 | 8.86151 | 15461 ft | 336 kts | 69° |
| 2026-04-16 12:55 | 47.97988 | 8.89415 | 14826 ft | 332 kts | 69° |
| 2026-04-16 12:55 | 47.98415 | 8.92744 | 14108 ft | 329 kts | 90° |
| 2026-04-16 12:56 | 47.98100 | 8.96097 | 13313 ft | 325 kts | 104° |
| 2026-04-16 12:56 | 47.97092 | 8.99053 | 12510 ft | 320 kts | 131° |
| 2026-04-16 12:56 | 47.95305 | 9.00929 | 11739 ft | 315 kts | 156° |
| 2026-04-16 12:56 | 47.93277 | 9.02043 | 11243 ft | 303 kts | 162° |
| 2026-04-16 12:57 | 47.91315 | 9.03038 | 10825 ft | 293 kts | 162° |
| 2026-04-16 12:57 | 47.89405 | 9.03973 | 10416 ft | 286 kts | 163° |
| 2026-04-16 12:57 | 47.87539 | 9.04858 | 10048 ft | 278 kts | 163° |
| 2026-04-16 12:57 | 47.85710 | 9.05724 | 9644 ft | 273 kts | 163° |
| 2026-04-16 12:58 | 47.83919 | 9.06570 | 9246 ft | 268 kts | 163° |
| 2026-04-16 12:58 | 47.82148 | 9.07401 | 8857 ft | 266 kts | 163° |
| 2026-04-16 12:58 | 47.80393 | 9.08217 | 8466 ft | 263 kts | 163° |
| 2026-04-16 12:58 | 47.78649 | 9.09021 | 8083 ft | 261 kts | 163° |
| 2026-04-16 12:59 | 47.76912 | 9.09811 | 7734 ft | 259 kts | 163° |
| 2026-04-16 12:59 | 47.75203 | 9.10583 | 7459 ft | 255 kts | 163° |
| 2026-04-16 12:59 | 47.73516 | 9.11338 | 7185 ft | 251 kts | 163° |
| 2026-04-16 13:00 | 47.70199 | 9.12824 | 6644 ft | 248 kts | 163° |
| 2026-04-16 13:00 | 47.68569 | 9.13539 | 6361 ft | 246 kts | 163° |
| 2026-04-16 13:00 | 47.66934 | 9.14255 | 6074 ft | 245 kts | 163° |
| 2026-04-16 13:00 | 47.65319 | 9.14956 | 5989 ft | 236 kts | 163° |
| 2026-04-16 13:01 | 47.63754 | 9.15632 | 5784 ft | 235 kts | 163° |
| 2026-04-16 13:01 | 47.62178 | 9.16303 | 5504 ft | 236 kts | 163° |
| 2026-04-16 13:01 | 47.60601 | 9.16966 | 5226 ft | 236 kts | 163° |
| 2026-04-16 13:01 | 47.59020 | 9.17627 | 4992 ft | 233 kts | 163° |
| 2026-04-16 13:02 | 47.57509 | 9.18258 | 4986 ft | 219 kts | 163° |
| 2026-04-16 13:02 | 47.56085 | 9.18852 | 4980 ft | 208 kts | 163° |
| 2026-04-16 13:02 | 47.54850 | 9.19817 | 4973 ft | 198 kts | 136° |
| 2026-04-16 13:02 | 47.53889 | 9.21244 | 4974 ft | 197 kts | 133° |
| 2026-04-16 13:03 | 47.53045 | 9.22832 | 4977 ft | 198 kts | 118° |
| 2026-04-16 13:03 | 47.52495 | 9.24711 | 4976 ft | 200 kts | 105° |
| 2026-04-16 13:03 | 47.52224 | 9.26730 | 4978 ft | 200 kts | 99° |
| 2026-04-16 13:03 | 47.51966 | 9.28752 | 4980 ft | 201 kts | 100° |
| 2026-04-16 13:04 | 47.51705 | 9.30786 | 4977 ft | 201 kts | 100° |
| 2026-04-16 13:04 | 47.51447 | 9.32819 | 4989 ft | 200 kts | 100° |
| 2026-04-16 13:04 | 47.51191 | 9.34843 | 4969 ft | 201 kts | 99° |
| 2026-04-16 13:04 | 47.50935 | 9.36866 | 4619 ft | 198 kts | 100° |
| 2026-04-16 13:05 | 47.50682 | 9.38859 | 4276 ft | 195 kts | 99° |
| 2026-04-16 13:05 | 47.50434 | 9.40819 | 3929 ft | 191 kts | 99° |
| 2026-04-16 13:05 | 47.50201 | 9.42644 | 3592 ft | 174 kts | 99° |
| 2026-04-16 13:05 | 47.49982 | 9.44365 | 3264 ft | 168 kts | 99° |
| 2026-04-16 13:06 | 47.49768 | 9.46042 | 2986 ft | 164 kts | 98° |
| 2026-04-16 13:06 | 47.49560 | 9.47693 | 2725 ft | 163 kts | 98° |
| 2026-04-16 13:06 | 47.49351 | 9.49338 | 2455 ft | 162 kts | 99° |
| 2026-04-16 13:06 | 47.49499 | 9.50908 | 2222 ft | 154 kts | 56° |
| 2026-04-16 13:07 | 47.50115 | 9.52130 | 2222 ft | 146 kts | 53° |
| 2026-04-16 13:07 | 47.50695 | 9.53361 | 2218 ft | 145 kts | 55° |
| 2026-04-16 13:07 | 47.50859 | 9.54790 | 2213 ft | 147 kts | 101° |
| 2026-04-16 13:07 | 47.50615 | 9.56252 | 2220 ft | 147 kts | 100° |
| 2026-04-16 13:08 | 47.50407 | 9.57728 | 2220 ft | 146 kts | 101° |
| 2026-04-16 13:08 | 47.50187 | 9.59211 | 2216 ft | 147 kts | 101° |
| 2026-04-16 13:08 | 47.49905 | 9.60655 | 2108 ft | 148 kts | 117° |
| 2026-04-16 13:08 | 47.49134 | 9.61549 | 2001 ft | 140 kts | 166° |
| 2026-04-16 13:09 | 47.48231 | 9.61305 | 1830 ft | 134 kts | 218° |
| 2026-04-16 13:09 | 47.47964 | 9.60120 | 1742 ft | 126 kts | 289° |
| 2026-04-16 13:09 | 47.48213 | 9.58873 | 1669 ft | 125 kts | 282° |
| 2026-04-16 13:09 | 47.48341 | 9.57621 | 1450 ft | 120 kts | 280° |
| 2026-04-16 13:10 | 47.48467 | 9.56435 | 1305 ft | 108 kts | 279° |
| 2026-04-16 13:10 | 47.48538 | 9.55748 | 1313 ft | 41 kts | 279° |
| 2026-04-16 13:10 | 47.48572 | 9.55429 | 1313 ft | 23 kts | 278° |
| 2026-04-16 13:10 | 47.48606 | 9.55322 | 1311 ft | 7 kts | 7° |
| 2026-04-16 13:11 | 47.48642 | 9.55323 | 1309 ft | 6 kts | 329° |
| 2026-04-16 13:11 | 47.48668 | 9.55247 | 1309 ft | 6 kts | 294° |
| 2026-04-16 13:11 | 47.48689 | 9.55182 | 1309 ft | 8 kts | 295° |
| 2026-04-16 13:11 | 47.48717 | 9.55163 | 1309 ft | 2 kts | 78° |
| 2026-04-16 13:12 | 47.48714 | 9.55202 | 1309 ft | 5 kts | 84° |
| 2026-04-16 13:12 | 47.48721 | 9.55210 | 1309 ft | 2 kts | 5° |
| 2026-04-16 13:12 | 47.48727 | 9.55210 | 1308 ft | 0 kts | 4° |